createdAt,value
2019-05-19T00:00:07.247Z,14.31
2019-05-19T00:02:33.978Z,13.88
2019-05-19T00:05:00.716Z,14.02
2019-05-19T00:07:27.463Z,13.71
2019-05-19T00:09:54.198Z,13.70
2019-05-19T00:12:20.942Z,13.81
2019-05-19T00:14:47.663Z,13.87
2019-05-19T00:17:14.487Z,14.56
2019-05-19T00:19:41.223Z,14.30
2019-05-19T00:22:07.968Z,14.29
2019-05-19T00:24:34.698Z,14.18
2019-05-19T00:27:01.461Z,13.82
2019-05-19T00:29:28.187Z,13.79
2019-05-19T00:31:54.939Z,13.78
2019-05-19T00:34:21.658Z,13.81
2019-05-19T00:36:48.396Z,13.76
2019-05-19T00:39:15.138Z,13.89
2019-05-19T00:41:41.866Z,13.92
2019-05-19T00:44:08.601Z,13.89
2019-05-19T00:46:35.332Z,13.97
2019-05-19T00:49:02.094Z,13.93
2019-05-19T00:51:28.830Z,13.78
2019-05-19T00:53:55.575Z,13.70
2019-05-19T00:56:22.327Z,13.75
2019-05-19T00:58:49.098Z,13.86
2019-05-19T01:01:15.886Z,13.98
2019-05-19T01:03:42.639Z,13.90
2019-05-19T01:06:09.395Z,13.82
2019-05-19T01:08:36.122Z,13.87
2019-05-19T01:11:02.882Z,14.01
2019-05-19T01:13:29.618Z,14.03
2019-05-19T01:15:56.341Z,14.00
2019-05-19T01:18:23.084Z,13.94
2019-05-19T01:20:49.810Z,14.05
2019-05-19T01:23:16.558Z,14.32
2019-05-19T01:25:43.285Z,14.14
2019-05-19T01:28:10.034Z,14.00
2019-05-19T01:30:36.981Z,13.86
2019-05-19T01:33:03.718Z,13.96
2019-05-19T01:35:30.450Z,13.85
2019-05-19T01:37:57.198Z,13.77
2019-05-19T01:40:23.931Z,13.81
2019-05-19T01:42:50.670Z,14.06
2019-05-19T01:45:17.422Z,14.06
2019-05-19T01:47:44.174Z,14.12
2019-05-19T01:50:18.779Z,14.15
2019-05-19T01:52:37.647Z,14.09
2019-05-19T01:55:04.422Z,14.12
2019-05-19T01:57:31.146Z,14.12
2019-05-19T01:59:57.910Z,14.29
2019-05-19T02:02:24.646Z,14.32
2019-05-19T02:04:51.467Z,14.29
2019-05-19T02:07:18.190Z,14.36
2019-05-19T02:09:44.955Z,14.21
2019-05-19T02:12:11.674Z,14.22
2019-05-19T02:14:38.414Z,14.10
2019-05-19T02:17:05.160Z,13.94
2019-05-19T02:19:31.915Z,14.08
2019-05-19T02:21:58.630Z,14.21
2019-05-19T02:24:25.386Z,13.98
2019-05-19T02:26:52.119Z,13.86
2019-05-19T02:29:18.857Z,13.76
2019-05-19T02:31:45.609Z,13.76
2019-05-19T02:34:12.447Z,13.73
2019-05-19T02:36:39.179Z,13.87
2019-05-19T02:39:05.934Z,14.00
2019-05-19T02:41:32.690Z,14.41
2019-05-19T02:43:59.394Z,14.53
2019-05-19T02:46:26.125Z,14.44
2019-05-19T02:48:53.145Z,14.44
2019-05-19T02:51:19.901Z,14.29
2019-05-19T02:53:46.623Z,14.48
2019-05-19T02:56:13.355Z,14.61
2019-05-19T02:58:40.081Z,14.43
2019-05-19T03:01:06.839Z,14.32
2019-05-19T03:03:33.582Z,14.09
2019-05-19T03:06:00.323Z,14.12
2019-05-19T03:08:27.047Z,14.12
2019-05-19T03:10:53.798Z,14.14
2019-05-19T03:13:20.523Z,14.52
2019-05-19T03:15:47.258Z,14.17
2019-05-19T03:18:13.981Z,13.51
2019-05-19T03:20:40.727Z,13.36
2019-05-19T03:23:07.510Z,13.15
2019-05-19T03:25:34.290Z,13.18
2019-05-19T03:28:01.039Z,13.19
2019-05-19T03:30:53.345Z,13.04
2019-05-19T03:33:22.572Z,12.98
2019-05-19T03:35:49.311Z,12.95
2019-05-19T03:38:16.073Z,13.11
2019-05-19T03:40:42.831Z,13.43
2019-05-19T03:43:09.635Z,13.66
2019-05-19T03:45:36.373Z,13.81
2019-05-19T03:48:03.099Z,13.92
2019-05-19T03:50:29.846Z,14.45
2019-05-19T03:52:56.582Z,14.31
2019-05-19T03:55:23.343Z,14.36
2019-05-19T03:57:50.067Z,14.32
2019-05-19T04:00:16.801Z,14.19
2019-05-19T04:02:43.547Z,14.05
2019-05-19T04:05:10.283Z,13.85
2019-05-19T04:07:37.031Z,13.95
2019-05-19T04:10:04.074Z,14.19
2019-05-19T04:12:30.855Z,14.16
2019-05-19T04:14:57.576Z,14.12
2019-05-19T04:17:24.326Z,14.13
2019-05-19T04:19:51.055Z,14.12
2019-05-19T04:22:17.843Z,14.24
2019-05-19T04:24:44.712Z,14.09
2019-05-19T04:27:11.490Z,14.01
2019-05-19T04:29:39.536Z,13.91
2019-05-19T04:32:04.962Z,14.05
2019-05-19T04:34:31.701Z,14.16
2019-05-19T04:36:58.512Z,14.12
2019-05-19T04:39:25.186Z,13.71
2019-05-19T04:41:51.920Z,13.46
2019-05-19T04:44:18.680Z,13.66
2019-05-19T04:46:45.401Z,13.28
2019-05-19T04:49:12.228Z,13.31
2019-05-19T04:51:38.987Z,13.26
2019-05-19T04:54:05.710Z,12.97
2019-05-19T04:56:32.463Z,12.94
2019-05-19T04:58:59.191Z,12.95
2019-05-19T05:01:25.919Z,12.98
2019-05-19T05:03:52.683Z,13.29
2019-05-19T05:06:19.410Z,13.49
2019-05-19T05:08:46.162Z,13.73
2019-05-19T05:11:12.902Z,13.89
2019-05-19T05:13:39.642Z,14.28
2019-05-19T05:16:06.391Z,14.29
2019-05-19T05:18:33.133Z,14.64
2019-05-19T05:20:59.863Z,14.18
2019-05-19T05:23:26.612Z,13.85
2019-05-19T05:25:53.345Z,14.10
2019-05-19T05:28:20.190Z,14.44
2019-05-19T05:30:47.069Z,14.74
2019-05-19T05:33:13.830Z,14.69
2019-05-19T05:35:40.574Z,14.87
2019-05-19T05:38:07.327Z,14.65
2019-05-19T05:40:34.194Z,14.85
2019-05-19T05:43:00.955Z,14.97
2019-05-19T05:45:27.670Z,14.68
2019-05-19T05:47:54.410Z,15.24
2019-05-19T05:50:21.151Z,14.77
2019-05-19T05:52:48.078Z,14.09
2019-05-19T05:55:14.844Z,13.78
2019-05-19T05:57:41.574Z,13.74
2019-05-19T06:00:08.386Z,13.45
2019-05-19T06:02:35.127Z,13.22
2019-05-19T06:05:01.954Z,13.11
2019-05-19T06:07:28.666Z,13.35
2019-05-19T06:09:55.490Z,13.31
2019-05-19T06:12:22.206Z,14.13
2019-05-19T06:14:48.955Z,14.36
2019-05-19T06:17:15.704Z,14.52
2019-05-19T06:19:42.451Z,14.47
2019-05-19T06:22:09.179Z,14.54
2019-05-19T06:24:35.938Z,15.21
2019-05-19T06:27:02.662Z,15.17
2019-05-19T06:29:29.427Z,15.72
2019-05-19T06:31:58.961Z,15.47
2019-05-19T06:34:25.695Z,15.64
2019-05-19T06:36:55.102Z,15.52
2019-05-19T06:39:19.386Z,15.25
2019-05-19T06:41:46.111Z,15.22
2019-05-19T06:44:12.903Z,15.04
2019-05-19T06:46:39.634Z,14.65
2019-05-19T06:49:06.389Z,14.79
2019-05-19T06:51:33.122Z,14.95
2019-05-19T06:53:59.863Z,14.80
2019-05-19T06:56:26.622Z,15.00
2019-05-19T06:58:53.427Z,15.09
2019-05-19T07:01:20.183Z,15.00
2019-05-19T07:03:46.930Z,14.59
2019-05-19T07:06:13.678Z,14.63
2019-05-19T07:08:40.418Z,14.79
2019-05-19T07:11:07.174Z,14.91
2019-05-19T07:13:33.925Z,15.13
2019-05-19T07:16:00.653Z,14.83
2019-05-19T07:18:27.368Z,14.76
2019-05-19T07:20:54.111Z,14.93
2019-05-19T07:23:28.097Z,15.06
2019-05-19T07:25:47.705Z,14.45
2019-05-19T07:28:14.837Z,14.59
2019-05-19T07:30:41.598Z,14.52
2019-05-19T07:33:08.401Z,14.91
2019-05-19T07:35:35.599Z,15.03
2019-05-19T07:38:02.416Z,15.15
2019-05-19T07:40:29.147Z,14.71
2019-05-19T07:42:56.306Z,14.57
2019-05-19T07:45:23.158Z,14.72
2019-05-19T07:47:49.910Z,14.97
2019-05-19T07:50:16.774Z,15.17
2019-05-19T07:52:43.505Z,15.37
2019-05-19T07:55:10.307Z,15.50
2019-05-19T07:57:37.052Z,15.03
2019-05-19T08:00:04.992Z,15.48
2019-05-19T08:02:31.100Z,15.28
2019-05-19T08:04:57.791Z,15.76
2019-05-19T08:07:24.520Z,15.65
2019-05-19T08:09:51.250Z,16.07
2019-05-19T08:12:18.002Z,16.79
2019-05-19T08:14:44.722Z,17.39
2019-05-19T08:17:11.462Z,17.41
2019-05-19T08:19:38.216Z,17.97
2019-05-19T08:22:04.950Z,18.25
2019-05-19T08:24:31.698Z,18.80
2019-05-19T08:26:58.475Z,18.37
2019-05-19T08:29:25.206Z,18.93
2019-05-19T08:31:51.946Z,19.10
2019-05-19T08:34:18.678Z,18.98
2019-05-19T08:36:45.598Z,18.27
2019-05-19T08:39:12.150Z,17.70
2019-05-19T08:41:38.981Z,18.61
2019-05-19T08:44:05.728Z,18.02
2019-05-19T08:46:32.571Z,18.49
2019-05-19T08:48:59.327Z,18.91
2019-05-19T08:51:26.096Z,18.49
2019-05-19T08:53:52.803Z,18.32
2019-05-19T08:56:19.555Z,18.22
2019-05-19T08:58:46.283Z,18.10
2019-05-19T09:01:13.010Z,19.51
2019-05-19T09:03:39.765Z,19.53
2019-05-19T09:06:06.578Z,20.26
2019-05-19T09:08:33.326Z,21.10
2019-05-19T09:11:00.162Z,21.72
2019-05-19T09:13:27.318Z,21.93
2019-05-19T09:15:54.137Z,21.68
2019-05-19T09:18:20.890Z,22.84
2019-05-19T09:20:47.639Z,23.26
2019-05-19T09:23:14.382Z,23.75
2019-05-19T09:25:41.110Z,22.15
2019-05-19T09:28:07.954Z,22.29
2019-05-19T09:30:34.710Z,21.87
2019-05-19T09:33:01.594Z,22.23
2019-05-19T09:35:28.265Z,22.38
2019-05-19T09:37:55.062Z,22.42
2019-05-19T09:40:21.862Z,22.82
2019-05-19T09:42:48.613Z,23.47
2019-05-19T09:45:15.397Z,22.69
2019-05-19T09:47:42.213Z,23.57
2019-05-19T09:50:08.956Z,24.20
2019-05-19T09:52:35.698Z,23.90
2019-05-19T09:55:02.474Z,23.01
2019-05-19T09:57:29.215Z,22.42
2019-05-19T09:59:55.949Z,21.76
2019-05-19T10:02:22.747Z,19.96
2019-05-19T10:04:49.474Z,21.07
2019-05-19T10:07:16.202Z,20.91
2019-05-19T10:10:01.861Z,21.56
2019-05-19T10:12:28.834Z,21.72
2019-05-19T10:14:55.584Z,22.09
2019-05-19T10:17:22.313Z,22.75
2019-05-19T10:19:49.069Z,20.13
2019-05-19T10:22:15.894Z,19.52
2019-05-19T10:24:59.204Z,20.71
2019-05-19T10:27:09.502Z,20.58
2019-05-19T10:29:36.262Z,20.39
2019-05-19T10:32:03.011Z,21.18
2019-05-19T10:34:29.758Z,21.32
2019-05-19T10:36:56.566Z,21.64
2019-05-19T10:39:23.323Z,21.14
2019-05-19T10:41:50.074Z,21.81
2019-05-19T10:44:16.859Z,22.44
2019-05-19T10:46:43.593Z,21.36
2019-05-19T10:49:10.351Z,21.23
2019-05-19T10:51:37.098Z,21.06
2019-05-19T10:54:03.870Z,21.51
2019-05-19T10:56:30.606Z,21.98
2019-05-19T10:58:57.355Z,21.86
2019-05-19T11:01:24.305Z,20.96
2019-05-19T11:03:51.044Z,21.16
2019-05-19T11:06:17.850Z,21.12
2019-05-19T11:08:44.590Z,22.57
2019-05-19T11:11:11.346Z,21.63
2019-05-19T11:13:38.063Z,21.71
2019-05-19T11:16:04.815Z,22.38
2019-05-19T11:18:31.557Z,22.78
2019-05-19T11:20:58.318Z,22.49
2019-05-19T11:23:25.034Z,22.31
2019-05-19T11:25:57.648Z,22.87
2019-05-19T11:28:24.580Z,23.14
2019-05-19T11:31:01.008Z,23.56
2019-05-19T11:33:29.776Z,23.71
2019-05-19T11:35:58.789Z,24.01
2019-05-19T11:38:28.938Z,24.28
2019-05-19T11:40:59.266Z,24.34
2019-05-19T11:43:29.250Z,24.57
2019-05-19T11:45:58.243Z,24.08
2019-05-19T11:48:26.882Z,24.37
2019-05-19T11:50:55.943Z,24.57
2019-05-19T11:53:24.834Z,23.79
2019-05-19T11:56:05.710Z,23.44
2019-05-19T11:58:22.124Z,23.08
2019-05-19T12:00:49.720Z,23.30
2019-05-19T12:03:20.684Z,23.58
2019-05-19T12:05:48.700Z,24.52
2019-05-19T12:08:17.391Z,23.95
2019-05-19T12:10:53.816Z,23.47
2019-05-19T12:13:21.526Z,23.11
2019-05-19T12:15:52.159Z,22.70
2019-05-19T12:18:21.297Z,22.33
2019-05-19T12:20:49.519Z,22.84
2019-05-19T12:23:18.976Z,22.92
2019-05-19T12:25:49.424Z,23.53
2019-05-19T12:28:19.385Z,24.39
2019-05-19T12:30:50.790Z,24.15
2019-05-19T12:33:21.663Z,24.23
2019-05-19T12:35:50.775Z,23.44
2019-05-19T12:38:21.777Z,23.53
2019-05-19T12:40:53.581Z,23.55
2019-05-19T12:43:23.386Z,23.80
2019-05-19T12:45:55.687Z,24.60
2019-05-19T12:48:24.241Z,24.75
2019-05-19T12:50:52.238Z,24.97
2019-05-19T12:53:21.641Z,26.18
2019-05-19T12:55:51.039Z,25.19
2019-05-19T12:58:22.306Z,24.48
2019-05-19T13:00:51.474Z,24.09
2019-05-19T13:03:24.564Z,23.71
2019-05-19T13:05:55.924Z,24.57
2019-05-19T13:08:24.080Z,24.44
2019-05-19T13:10:53.167Z,25.11
2019-05-19T13:13:23.695Z,25.41
2019-05-19T13:16:00.700Z,25.63
2019-05-19T13:18:33.465Z,25.44
2019-05-19T13:21:01.959Z,24.84
2019-05-19T13:23:35.673Z,25.78
2019-05-19T13:26:00.365Z,25.92
2019-05-19T13:28:29.268Z,25.22
2019-05-19T13:30:58.034Z,24.67
2019-05-19T13:33:25.674Z,25.03
2019-05-19T13:35:57.966Z,24.16
2019-05-19T13:38:26.735Z,24.16
2019-05-19T13:40:55.024Z,24.28
2019-05-19T13:43:28.313Z,24.46
2019-05-19T13:45:55.961Z,25.06
2019-05-19T13:48:24.461Z,25.23
2019-05-19T13:50:55.533Z,25.70
2019-05-19T13:53:29.108Z,24.92
2019-05-19T13:55:54.109Z,24.66
2019-05-19T13:58:26.085Z,24.90
2019-05-19T14:00:58.196Z,25.38
2019-05-19T14:03:31.019Z,24.85
2019-05-19T14:05:59.317Z,25.38
2019-05-19T14:08:30.972Z,25.69
2019-05-19T14:10:59.106Z,24.86
2019-05-19T14:13:28.268Z,25.46
2019-05-19T14:15:56.710Z,25.72
2019-05-19T14:18:27.024Z,25.56
2019-05-19T14:20:57.964Z,25.31
2019-05-19T14:23:26.710Z,25.07
2019-05-19T14:25:56.438Z,24.95
2019-05-19T14:28:26.847Z,25.52
2019-05-19T14:30:58.037Z,25.21
2019-05-19T14:33:26.606Z,24.89
2019-05-19T14:35:57.513Z,24.57
2019-05-19T14:38:29.004Z,23.94
2019-05-19T14:40:59.947Z,24.31
2019-05-19T14:43:29.961Z,23.59
2019-05-19T14:45:59.754Z,24.05
2019-05-19T14:48:28.746Z,24.07
2019-05-19T14:50:59.911Z,23.92
2019-05-19T14:53:29.394Z,24.57
2019-05-19T14:56:00.429Z,24.19
2019-05-19T14:58:27.910Z,23.79
2019-05-19T15:00:55.649Z,23.92
2019-05-19T15:03:24.337Z,24.35
2019-05-19T15:05:55.142Z,24.73
2019-05-19T15:08:22.845Z,25.03
2019-05-19T15:10:51.161Z,25.46
2019-05-19T15:13:20.613Z,25.35
2019-05-19T15:15:49.444Z,25.36
2019-05-19T15:18:16.788Z,24.31
2019-05-19T15:20:45.305Z,24.58
2019-05-19T15:23:15.386Z,24.51
2019-05-19T15:25:44.372Z,24.90
2019-05-19T15:28:13.625Z,25.23
2019-05-19T15:30:40.991Z,25.57
2019-05-19T15:33:09.130Z,26.16
2019-05-19T15:35:37.995Z,25.98
2019-05-19T15:38:05.546Z,25.69
2019-05-19T15:40:33.298Z,25.62
2019-05-19T15:43:01.286Z,24.63
2019-05-19T15:45:30.079Z,25.05
2019-05-19T15:47:59.543Z,24.76
2019-05-19T15:50:27.466Z,24.57
2019-05-19T15:52:55.493Z,24.28
2019-05-19T15:55:25.722Z,24.12
2019-05-19T15:57:53.588Z,23.60
2019-05-19T16:00:22.513Z,24.16
2019-05-19T16:02:51.468Z,24.21
2019-05-19T16:05:27.671Z,23.54
2019-05-19T16:07:55.393Z,23.29
2019-05-19T16:10:28.096Z,23.15
2019-05-19T16:12:56.935Z,22.60
2019-05-19T16:15:25.794Z,22.40
2019-05-19T16:17:56.156Z,22.05
2019-05-19T16:20:28.364Z,22.38
2019-05-19T16:22:57.992Z,22.53
2019-05-19T16:25:30.122Z,22.71
2019-05-19T16:28:01.424Z,22.54
2019-05-19T16:30:30.173Z,23.19
2019-05-19T16:33:01.624Z,23.08
2019-05-19T16:35:28.923Z,23.27
2019-05-19T16:37:58.704Z,23.18
2019-05-19T16:40:28.886Z,23.17
2019-05-19T16:42:57.469Z,23.14
2019-05-19T16:45:31.854Z,22.75
2019-05-19T16:47:59.990Z,22.22
2019-05-19T16:50:31.757Z,22.36
2019-05-19T16:52:59.819Z,22.28
2019-05-19T16:55:31.756Z,22.54
2019-05-19T16:57:59.827Z,22.27
2019-05-19T17:00:28.491Z,22.65
2019-05-19T17:03:02.256Z,22.71
2019-05-19T17:05:31.863Z,22.75
2019-05-19T17:08:03.176Z,22.52
2019-05-19T17:10:33.996Z,22.34
2019-05-19T17:13:02.482Z,22.57
2019-05-19T17:15:32.177Z,22.57
2019-05-19T17:18:08.311Z,22.72
2019-05-19T17:20:36.223Z,23.03
2019-05-19T17:23:12.181Z,23.06
2019-05-19T17:25:39.988Z,23.00
2019-05-19T17:28:08.949Z,22.62
2019-05-19T17:30:37.659Z,22.75
2019-05-19T17:33:07.744Z,22.70
2019-05-19T17:35:36.401Z,23.40
2019-05-19T17:38:07.997Z,22.91
2019-05-19T17:40:37.714Z,22.84
2019-05-19T17:43:07.013Z,23.50
2019-05-19T17:45:36.561Z,23.07
2019-05-19T17:48:10.084Z,22.62
2019-05-19T17:50:38.682Z,22.33
2019-05-19T17:53:06.880Z,22.09
2019-05-19T17:55:39.460Z,21.91
2019-05-19T17:58:07.546Z,22.40
2019-05-19T18:00:38.763Z,21.68
2019-05-19T18:03:10.959Z,21.45
2019-05-19T18:05:39.839Z,20.74
2019-05-19T18:08:10.119Z,20.36
2019-05-19T18:10:37.932Z,20.08
2019-05-19T18:13:10.637Z,19.98
2019-05-19T18:15:40.073Z,19.69
2019-05-19T18:18:09.935Z,19.48
2019-05-19T18:20:38.579Z,19.33
2019-05-19T18:23:07.900Z,19.26
2019-05-19T18:25:40.789Z,19.24
2019-05-19T18:28:10.082Z,19.05
2019-05-19T18:30:39.281Z,19.22
2019-05-19T18:33:08.808Z,19.40
2019-05-19T18:35:39.690Z,19.61
2019-05-19T18:38:09.743Z,19.58
2019-05-19T18:40:39.247Z,19.83
2019-05-19T18:43:11.003Z,19.54
2019-05-19T18:45:40.166Z,20.22
2019-05-19T18:48:10.380Z,19.89
2019-05-19T18:50:39.167Z,19.83
2019-05-19T18:53:08.259Z,19.86
2019-05-19T18:55:37.567Z,20.41
2019-05-19T18:58:07.529Z,20.00
2019-05-19T19:00:40.473Z,19.67
2019-05-19T19:03:10.206Z,19.56
2019-05-19T19:05:40.698Z,19.70
2019-05-19T19:08:09.088Z,19.50
2019-05-19T19:10:39.205Z,19.29
2019-05-19T19:13:14.405Z,19.24
2019-05-19T19:15:42.885Z,19.23
2019-05-19T19:18:12.142Z,18.83
2019-05-19T19:20:41.510Z,18.76
2019-05-19T19:23:15.772Z,19.14
2019-05-19T19:25:45.081Z,19.01
2019-05-19T19:28:15.082Z,19.12
2019-05-19T19:30:47.060Z,19.17
2019-05-19T19:33:20.991Z,19.65
2019-05-19T19:35:49.449Z,19.36
2019-05-19T19:38:20.308Z,19.20
2019-05-19T19:40:50.379Z,19.13
2019-05-19T19:43:21.014Z,18.93
2019-05-19T19:45:55.911Z,19.10
2019-05-19T19:48:23.639Z,19.07
2019-05-19T19:50:52.297Z,18.91
2019-05-19T19:53:22.244Z,18.91
2019-05-19T19:55:50.695Z,18.84
2019-05-19T19:58:23.753Z,18.82
2019-05-19T20:00:54.658Z,18.89
2019-05-19T20:03:24.280Z,18.53
2019-05-19T20:05:55.474Z,17.87
2019-05-19T20:08:28.474Z,17.69
2019-05-19T20:10:58.455Z,17.55
2019-05-19T20:13:29.191Z,17.92
2019-05-19T20:15:58.526Z,17.60
2019-05-19T20:18:26.927Z,17.37
2019-05-19T20:20:56.718Z,17.36
2019-05-19T20:23:25.568Z,17.20
2019-05-19T20:25:55.647Z,17.52
2019-05-19T20:28:24.983Z,17.24
2019-05-19T20:30:54.389Z,17.11
2019-05-19T20:33:24.116Z,17.09
2019-05-19T20:35:53.209Z,17.12
2019-05-19T20:38:24.361Z,16.93
2019-05-19T20:41:00.972Z,17.34
2019-05-19T20:43:33.280Z,16.83
2019-05-19T20:46:01.855Z,16.51
2019-05-19T20:48:32.760Z,16.28
2019-05-19T20:50:58.991Z,16.32
2019-05-19T20:53:29.194Z,16.12
2019-05-19T20:55:58.037Z,16.17
2019-05-19T20:58:26.720Z,16.14
2019-05-19T21:00:55.659Z,15.88
2019-05-19T21:03:31.126Z,15.77
2019-05-19T21:06:04.451Z,15.96
2019-05-19T21:08:35.082Z,16.23
2019-05-19T21:11:04.227Z,16.04
2019-05-19T21:13:37.007Z,16.00
2019-05-19T21:16:05.067Z,16.10
2019-05-19T21:18:39.766Z,16.30
2019-05-19T21:21:11.505Z,16.19
2019-05-19T21:23:42.470Z,16.22
2019-05-19T21:26:18.626Z,16.29
2019-05-19T21:28:46.163Z,16.18
2019-05-19T21:31:15.421Z,16.25
2019-05-19T21:33:48.686Z,16.27
2019-05-19T21:36:20.939Z,16.48
2019-05-19T21:38:50.078Z,17.05
2019-05-19T21:41:23.905Z,16.93
2019-05-19T21:43:58.734Z,16.79
2019-05-19T21:46:30.559Z,16.69
2019-05-19T21:49:02.027Z,16.75
2019-05-19T21:51:32.963Z,17.36
2019-05-19T21:54:02.576Z,17.17
2019-05-19T21:56:32.567Z,17.26
2019-05-19T21:59:02.140Z,17.32
2019-05-19T22:01:36.976Z,17.18
2019-05-19T22:04:06.569Z,17.15
2019-05-19T22:06:40.028Z,17.17
2019-05-19T22:09:14.705Z,17.11
2019-05-19T22:11:43.756Z,17.00
2019-05-19T22:14:13.866Z,16.95
2019-05-19T22:16:42.348Z,17.03
2019-05-19T22:19:11.033Z,17.05
2019-05-19T22:21:41.235Z,17.09
2019-05-19T22:24:10.130Z,17.03
2019-05-19T22:26:39.748Z,17.55
2019-05-19T22:29:09.986Z,17.12
2019-05-19T22:31:38.454Z,17.04
2019-05-19T22:34:07.943Z,16.43
2019-05-19T22:36:38.922Z,16.41
2019-05-19T22:39:08.003Z,16.80
2019-05-19T22:41:41.844Z,16.70
2019-05-19T22:44:14.154Z,17.26
2019-05-19T22:46:47.140Z,16.82
2019-05-19T22:49:17.903Z,16.67
2019-05-19T22:51:47.204Z,16.70
2019-05-19T22:54:22.831Z,17.22
2019-05-19T22:56:52.169Z,17.43
2019-05-19T22:59:24.296Z,17.49
2019-05-19T23:01:54.019Z,16.80
2019-05-19T23:04:24.900Z,16.77
2019-05-19T23:06:54.650Z,16.23
2019-05-19T23:09:24.365Z,16.00
2019-05-19T23:11:55.237Z,15.89
2019-05-19T23:14:30.880Z,15.97
2019-05-19T23:17:04.551Z,15.89
2019-05-19T23:19:37.121Z,16.10
2019-05-19T23:22:09.765Z,16.15
2019-05-19T23:24:47.603Z,15.95
2019-05-19T23:27:16.946Z,15.67
2019-05-19T23:29:46.175Z,15.62
2019-05-19T23:32:15.339Z,15.67
2019-05-19T23:34:43.333Z,15.61
2019-05-19T23:37:15.232Z,15.63
2019-05-19T23:39:45.984Z,15.67
2019-05-19T23:42:14.135Z,15.82
2019-05-19T23:44:45.080Z,15.99
2019-05-19T23:47:14.596Z,16.59
2019-05-19T23:49:45.038Z,16.29
2019-05-19T23:52:15.457Z,16.34
2019-05-19T23:54:47.601Z,16.26
2019-05-19T23:57:19.587Z,16.32
2019-05-19T23:59:48.781Z,16.30
